sensor_id;sensor_type;location;lat;lon;timestamp;temperature;humidity
3172;DHT22;1597;51.572;6.992;2023-09-18T00:00:04;21.20;99.90
3172;DHT22;1597;51.572;6.992;2023-09-18T00:02:36;21.20;99.90
3172;DHT22;1597;51.572;6.992;2023-09-18T00:05:02;21.20;99.90
3172;DHT22;1597;51.572;6.992;2023-09-18T00:07:29;21.20;99.90
3172;DHT22;1597;51.572;6.992;2023-09-18T00:09:55;21.20;99.90
3172;DHT22;1597;51.572;6.992;2023-09-18T00:12:20;21.20;99.90
3172;DHT22;1597;51.572;6.992;2023-09-18T00:14:50;21.20;99.90
3172;DHT22;1597;51.572;6.992;2023-09-18T00:17:16;21.10;99.90
3172;DHT22;1597;51.572;6.992;2023-09-18T00:19:43;21.20;99.90
3172;DHT22;1597;51.572;6.992;2023-09-18T00:22:08;21.20;99.90
3172;DHT22;1597;51.572;6.992;2023-09-18T00:24:34;21.20;99.90
3172;DHT22;1597;51.572;6.992;2023-09-18T00:27:00;21.10;99.90
3172;DHT22;1597;51.572;6.992;2023-09-18T00:29:26;21.10;99.90
3172;DHT22;1597;51.572;6.992;2023-09-18T00:31:51;21.10;99.90
3172;DHT22;1597;51.572;6.992;2023-09-18T00:34:17;21.10;99.90
3172;DHT22;1597;51.572;6.992;2023-09-18T00:36:43;21.20;99.90
3172;DHT22;1597;51.572;6.992;2023-09-18T00:39:09;21.10;99.90
3172;DHT22;1597;51.572;6.992;2023-09-18T00:41:36;21.20;99.90
3172;DHT22;1597;51.572;6.992;2023-09-18T00:44:02;21.20;99.90
3172;DHT22;1597;51.572;6.992;2023-09-18T00:46:28;21.20;99.90
3172;DHT22;1597;51.572;6.992;2023-09-18T00:48:54;21.20;99.90
3172;DHT22;1597;51.572;6.992;2023-09-18T00:51:20;21.20;99.90
3172;DHT22;1597;51.572;6.992;2023-09-18T00:53:47;21.20;99.90
3172;DHT22;1597;51.572;6.992;2023-09-18T00:56:14;21.20;99.90
3172;DHT22;1597;51.572;6.992;2023-09-18T00:58:40;21.20;99.90
3172;DHT22;1597;51.572;6.992;2023-09-18T01:01:06;21.20;99.90
3172;DHT22;1597;51.572;6.992;2023-09-18T01:03:32;21.20;99.90
3172;DHT22;1597;51.572;6.992;2023-09-18T01:05:59;21.20;99.90
3172;DHT22;1597;51.572;6.992;2023-09-18T01:08:25;21.20;99.90
3172;DHT22;1597;51.572;6.992;2023-09-18T01:10:56;21.20;99.90
3172;DHT22;1597;51.572;6.992;2023-09-18T01:14:03;21.20;99.90
3172;DHT22;1597;51.572;6.992;2023-09-18T01:16:50;21.20;99.90
3172;DHT22;1597;51.572;6.992;2023-09-18T01:19:43;21.20;99.90
3172;DHT22;1597;51.572;6.992;2023-09-18T01:22:12;21.20;99.90
3172;DHT22;1597;51.572;6.992;2023-09-18T01:24:39;21.20;99.90
3172;DHT22;1597;51.572;6.992;2023-09-18T01:27:09;21.20;99.90
3172;DHT22;1597;51.572;6.992;2023-09-18T01:29:38;21.20;99.90
3172;DHT22;1597;51.572;6.992;2023-09-18T01:32:04;21.10;99.90
3172;DHT22;1597;51.572;6.992;2023-09-18T01:34:38;21.10;99.90
3172;DHT22;1597;51.572;6.992;2023-09-18T01:37:07;21.20;99.90
3172;DHT22;1597;51.572;6.992;2023-09-18T01:39:35;21.10;99.90
3172;DHT22;1597;51.572;6.992;2023-09-18T01:42:06;21.20;99.90
3172;DHT22;1597;51.572;6.992;2023-09-18T01:44:32;21.20;99.90
3172;DHT22;1597;51.572;6.992;2023-09-18T01:47:00;21.20;99.90
3172;DHT22;1597;51.572;6.992;2023-09-18T01:49:33;21.20;99.90
3172;DHT22;1597;51.572;6.992;2023-09-18T01:52:04;21.20;99.90
3172;DHT22;1597;51.572;6.992;2023-09-18T01:54:32;21.20;99.90
3172;DHT22;1597;51.572;6.992;2023-09-18T01:56:58;21.20;99.90
3172;DHT22;1597;51.572;6.992;2023-09-18T01:59:24;21.10;99.90
3172;DHT22;1597;51.572;6.992;2023-09-18T02:01:52;21.10;99.90
3172;DHT22;1597;51.572;6.992;2023-09-18T02:04:19;21.10;99.90
3172;DHT22;1597;51.572;6.992;2023-09-18T02:06:47;21.10;99.90
3172;DHT22;1597;51.572;6.992;2023-09-18T02:09:14;21.10;99.90
3172;DHT22;1597;51.572;6.992;2023-09-18T02:11:42;21.10;99.90
3172;DHT22;1597;51.572;6.992;2023-09-18T02:14:10;21.10;99.90
3172;DHT22;1597;51.572;6.992;2023-09-18T02:16:37;21.10;99.90
3172;DHT22;1597;51.572;6.992;2023-09-18T02:19:07;21.10;99.90
3172;DHT22;1597;51.572;6.992;2023-09-18T02:21:34;21.10;99.90
3172;DHT22;1597;51.572;6.992;2023-09-18T02:24:00;21.00;99.90
3172;DHT22;1597;51.572;6.992;2023-09-18T02:26:26;21.10;99.90
3172;DHT22;1597;51.572;6.992;2023-09-18T02:28:57;21.10;99.90
3172;DHT22;1597;51.572;6.992;2023-09-18T02:31:24;21.00;99.90
3172;DHT22;1597;51.572;6.992;2023-09-18T02:33:50;21.00;99.90
3172;DHT22;1597;51.572;6.992;2023-09-18T02:36:16;21.00;99.90
3172;DHT22;1597;51.572;6.992;2023-09-18T02:38:42;21.00;99.90
3172;DHT22;1597;51.572;6.992;2023-09-18T02:41:09;21.00;99.90
3172;DHT22;1597;51.572;6.992;2023-09-18T02:43:35;21.00;99.90
3172;DHT22;1597;51.572;6.992;2023-09-18T02:46:03;21.00;99.90
3172;DHT22;1597;51.572;6.992;2023-09-18T02:48:31;21.00;99.90
3172;DHT22;1597;51.572;6.992;2023-09-18T02:50:59;21.00;99.90
3172;DHT22;1597;51.572;6.992;2023-09-18T02:53:25;21.00;99.90
3172;DHT22;1597;51.572;6.992;2023-09-18T02:55:53;21.00;99.90
3172;DHT22;1597;51.572;6.992;2023-09-18T02:58:20;21.00;99.90
3172;DHT22;1597;51.572;6.992;2023-09-18T03:00:48;21.00;99.90
3172;DHT22;1597;51.572;6.992;2023-09-18T03:03:16;21.00;99.90
3172;DHT22;1597;51.572;6.992;2023-09-18T03:05:42;20.90;99.90
3172;DHT22;1597;51.572;6.992;2023-09-18T03:08:10;20.90;99.90
3172;DHT22;1597;51.572;6.992;2023-09-18T03:10:38;20.90;99.90
3172;DHT22;1597;51.572;6.992;2023-09-18T03:13:06;20.90;99.90
3172;DHT22;1597;51.572;6.992;2023-09-18T03:15:33;20.90;99.90
3172;DHT22;1597;51.572;6.992;2023-09-18T03:18:00;20.80;99.90
3172;DHT22;1597;51.572;6.992;2023-09-18T03:20:27;20.90;99.90
3172;DHT22;1597;51.572;6.992;2023-09-18T03:22:55;20.90;99.90
3172;DHT22;1597;51.572;6.992;2023-09-18T03:25:23;20.90;99.90
3172;DHT22;1597;51.572;6.992;2023-09-18T03:27:51;20.90;99.90
3172;DHT22;1597;51.572;6.992;2023-09-18T03:30:18;20.90;99.90
3172;DHT22;1597;51.572;6.992;2023-09-18T03:32:45;20.90;99.90
3172;DHT22;1597;51.572;6.992;2023-09-18T03:35:11;20.90;99.90
3172;DHT22;1597;51.572;6.992;2023-09-18T03:37:51;20.90;99.90
3172;DHT22;1597;51.572;6.992;2023-09-18T03:40:18;20.90;99.90
3172;DHT22;1597;51.572;6.992;2023-09-18T03:42:47;20.80;99.90
3172;DHT22;1597;51.572;6.992;2023-09-18T03:45:14;20.80;99.90
3172;DHT22;1597;51.572;6.992;2023-09-18T03:47:41;20.80;99.90
3172;DHT22;1597;51.572;6.992;2023-09-18T03:50:10;20.80;99.90
3172;DHT22;1597;51.572;6.992;2023-09-18T03:52:38;20.80;99.90
3172;DHT22;1597;51.572;6.992;2023-09-18T03:55:05;20.80;99.90
3172;DHT22;1597;51.572;6.992;2023-09-18T03:57:31;20.90;99.90
3172;DHT22;1597;51.572;6.992;2023-09-18T03:59:57;20.90;99.90
3172;DHT22;1597;51.572;6.992;2023-09-18T04:02:24;20.90;99.90
3172;DHT22;1597;51.572;6.992;2023-09-18T04:04:51;20.90;99.90
3172;DHT22;1597;51.572;6.992;2023-09-18T04:07:17;20.80;99.90
3172;DHT22;1597;51.572;6.992;2023-09-18T04:09:45;20.90;99.90
3172;DHT22;1597;51.572;6.992;2023-09-18T04:12:11;20.90;99.90
3172;DHT22;1597;51.572;6.992;2023-09-18T04:14:37;20.90;99.90
3172;DHT22;1597;51.572;6.992;2023-09-18T04:17:03;21.00;99.90
3172;DHT22;1597;51.572;6.992;2023-09-18T04:19:29;21.00;99.90
3172;DHT22;1597;51.572;6.992;2023-09-18T04:21:56;21.10;99.90
3172;DHT22;1597;51.572;6.992;2023-09-18T04:24:22;21.10;99.90
3172;DHT22;1597;51.572;6.992;2023-09-18T04:26:49;21.10;99.90
3172;DHT22;1597;51.572;6.992;2023-09-18T04:29:16;21.10;99.90
3172;DHT22;1597;51.572;6.992;2023-09-18T04:31:42;21.20;99.90
3172;DHT22;1597;51.572;6.992;2023-09-18T04:34:08;21.20;99.90
3172;DHT22;1597;51.572;6.992;2023-09-18T04:36:35;21.20;99.90
3172;DHT22;1597;51.572;6.992;2023-09-18T04:39:03;21.30;99.50
3172;DHT22;1597;51.572;6.992;2023-09-18T04:41:30;21.40;98.90
3172;DHT22;1597;51.572;6.992;2023-09-18T04:43:56;21.40;98.00
3172;DHT22;1597;51.572;6.992;2023-09-18T04:46:22;21.40;97.70
3172;DHT22;1597;51.572;6.992;2023-09-18T04:48:50;21.40;95.40
3172;DHT22;1597;51.572;6.992;2023-09-18T04:51:16;21.50;95.30
3172;DHT22;1597;51.572;6.992;2023-09-18T04:53:42;21.50;94.20
3172;DHT22;1597;51.572;6.992;2023-09-18T04:56:08;21.60;94.20
3172;DHT22;1597;51.572;6.992;2023-09-18T04:58:36;21.60;93.60
3172;DHT22;1597;51.572;6.992;2023-09-18T05:01:03;21.60;93.70
3172;DHT22;1597;51.572;6.992;2023-09-18T05:03:33;21.60;94.30
3172;DHT22;1597;51.572;6.992;2023-09-18T05:05:59;21.50;95.10
3172;DHT22;1597;51.572;6.992;2023-09-18T05:08:25;21.60;95.60
3172;DHT22;1597;51.572;6.992;2023-09-18T05:10:51;21.60;95.40
3172;DHT22;1597;51.572;6.992;2023-09-18T05:13:17;21.60;95.80
3172;DHT22;1597;51.572;6.992;2023-09-18T05:15:42;21.50;96.30
3172;DHT22;1597;51.572;6.992;2023-09-18T05:18:08;21.50;96.90
3172;DHT22;1597;51.572;6.992;2023-09-18T05:20:34;21.40;97.40
3172;DHT22;1597;51.572;6.992;2023-09-18T05:23:01;21.40;97.90
3172;DHT22;1597;51.572;6.992;2023-09-18T05:25:30;21.40;98.30
3172;DHT22;1597;51.572;6.992;2023-09-18T05:27:59;21.40;98.80
3172;DHT22;1597;51.572;6.992;2023-09-18T05:30:30;21.40;98.90
3172;DHT22;1597;51.572;6.992;2023-09-18T05:33:01;21.40;99.20
3172;DHT22;1597;51.572;6.992;2023-09-18T05:35:32;21.40;99.30
3172;DHT22;1597;51.572;6.992;2023-09-18T05:38:04;21.30;99.40
3172;DHT22;1597;51.572;6.992;2023-09-18T05:40:31;21.30;99.60
3172;DHT22;1597;51.572;6.992;2023-09-18T05:42:57;21.30;99.90
3172;DHT22;1597;51.572;6.992;2023-09-18T05:45:23;21.40;99.90
3172;DHT22;1597;51.572;6.992;2023-09-18T05:47:51;21.30;99.90
3172;DHT22;1597;51.572;6.992;2023-09-18T05:50:18;21.30;99.90
3172;DHT22;1597;51.572;6.992;2023-09-18T05:52:46;21.20;99.90
3172;DHT22;1597;51.572;6.992;2023-09-18T05:55:14;21.20;99.90
3172;DHT22;1597;51.572;6.992;2023-09-18T05:57:40;21.20;99.90
3172;DHT22;1597;51.572;6.992;2023-09-18T06:00:07;21.20;99.90
3172;DHT22;1597;51.572;6.992;2023-09-18T06:02:33;21.20;99.90
3172;DHT22;1597;51.572;6.992;2023-09-18T06:05:00;21.20;99.90
3172;DHT22;1597;51.572;6.992;2023-09-18T06:07:26;21.20;99.90
3172;DHT22;1597;51.572;6.992;2023-09-18T06:09:53;21.20;99.90
3172;DHT22;1597;51.572;6.992;2023-09-18T06:12:19;21.20;99.90
3172;DHT22;1597;51.572;6.992;2023-09-18T06:14:46;21.20;99.90
3172;DHT22;1597;51.572;6.992;2023-09-18T06:17:13;21.20;99.90
3172;DHT22;1597;51.572;6.992;2023-09-18T06:19:43;21.10;99.90
3172;DHT22;1597;51.572;6.992;2023-09-18T06:22:09;21.10;99.90
3172;DHT22;1597;51.572;6.992;2023-09-18T06:24:35;21.10;99.90
3172;DHT22;1597;51.572;6.992;2023-09-18T06:27:03;21.10;99.90
3172;DHT22;1597;51.572;6.992;2023-09-18T06:29:32;21.10;99.90
3172;DHT22;1597;51.572;6.992;2023-09-18T06:31:58;21.10;99.90
3172;DHT22;1597;51.572;6.992;2023-09-18T06:34:25;21.00;99.90
3172;DHT22;1597;51.572;6.992;2023-09-18T06:36:51;21.10;99.90
3172;DHT22;1597;51.572;6.992;2023-09-18T06:39:17;21.10;99.90
3172;DHT22;1597;51.572;6.992;2023-09-18T06:41:42;21.00;99.90
3172;DHT22;1597;51.572;6.992;2023-09-18T06:44:08;21.00;99.90
3172;DHT22;1597;51.572;6.992;2023-09-18T06:46:34;21.10;99.90
3172;DHT22;1597;51.572;6.992;2023-09-18T06:49:00;21.10;99.90
3172;DHT22;1597;51.572;6.992;2023-09-18T06:51:29;21.10;99.90
3172;DHT22;1597;51.572;6.992;2023-09-18T06:53:55;21.10;99.90
3172;DHT22;1597;51.572;6.992;2023-09-18T06:56:25;21.10;99.90
3172;DHT22;1597;51.572;6.992;2023-09-18T06:58:51;21.10;99.90
3172;DHT22;1597;51.572;6.992;2023-09-18T07:01:21;21.10;99.90
3172;DHT22;1597;51.572;6.992;2023-09-18T07:03:48;21.10;99.90
3172;DHT22;1597;51.572;6.992;2023-09-18T07:06:14;21.10;99.90
3172;DHT22;1597;51.572;6.992;2023-09-18T07:08:47;21.10;99.90
3172;DHT22;1597;51.572;6.992;2023-09-18T07:11:17;21.20;99.90
3172;DHT22;1597;51.572;6.992;2023-09-18T07:13:44;21.10;99.90
3172;DHT22;1597;51.572;6.992;2023-09-18T07:16:10;21.20;99.90
3172;DHT22;1597;51.572;6.992;2023-09-18T07:18:36;21.20;99.90
3172;DHT22;1597;51.572;6.992;2023-09-18T07:21:01;21.20;99.90
3172;DHT22;1597;51.572;6.992;2023-09-18T07:23:27;21.20;99.90
3172;DHT22;1597;51.572;6.992;2023-09-18T07:25:53;21.20;99.90
3172;DHT22;1597;51.572;6.992;2023-09-18T07:28:19;21.20;99.90
3172;DHT22;1597;51.572;6.992;2023-09-18T07:30:46;21.20;99.90
3172;DHT22;1597;51.572;6.992;2023-09-18T07:33:13;21.20;99.90
3172;DHT22;1597;51.572;6.992;2023-09-18T07:35:41;21.20;99.90
3172;DHT22;1597;51.572;6.992;2023-09-18T07:38:07;21.20;99.90
3172;DHT22;1597;51.572;6.992;2023-09-18T07:40:33;21.30;99.90
3172;DHT22;1597;51.572;6.992;2023-09-18T07:42:59;21.00;99.90
3172;DHT22;1597;51.572;6.992;2023-09-18T07:45:24;21.30;99.90
3172;DHT22;1597;51.572;6.992;2023-09-18T07:47:50;21.30;99.90
3172;DHT22;1597;51.572;6.992;2023-09-18T07:50:16;21.30;99.90
3172;DHT22;1597;51.572;6.992;2023-09-18T07:52:43;21.40;99.90
3172;DHT22;1597;51.572;6.992;2023-09-18T07:55:09;21.30;99.90
3172;DHT22;1597;51.572;6.992;2023-09-18T07:57:35;21.40;99.90
3172;DHT22;1597;51.572;6.992;2023-09-18T08:00:03;21.30;99.90
3172;DHT22;1597;51.572;6.992;2023-09-18T08:02:33;21.40;99.90
3172;DHT22;1597;51.572;6.992;2023-09-18T08:05:01;21.30;97.90
3172;DHT22;1597;51.572;6.992;2023-09-18T08:07:27;21.30;98.50
3172;DHT22;1597;51.572;6.992;2023-09-18T08:09:54;21.40;98.40
3172;DHT22;1597;51.572;6.992;2023-09-18T08:12:20;21.40;98.10
3172;DHT22;1597;51.572;6.992;2023-09-18T08:14:45;21.40;96.00
3172;DHT22;1597;51.572;6.992;2023-09-18T08:17:12;21.40;96.20
3172;DHT22;1597;51.572;6.992;2023-09-18T08:19:38;21.40;94.80
3172;DHT22;1597;51.572;6.992;2023-09-18T08:22:05;21.40;94.60
3172;DHT22;1597;51.572;6.992;2023-09-18T08:24:31;21.40;95.10
3172;DHT22;1597;51.572;6.992;2023-09-18T08:26:57;21.40;95.40
3172;DHT22;1597;51.572;6.992;2023-09-18T08:29:23;21.40;94.50
3172;DHT22;1597;51.572;6.992;2023-09-18T08:31:49;21.40;92.20
3172;DHT22;1597;51.572;6.992;2023-09-18T08:34:16;21.50;91.30
3172;DHT22;1597;51.572;6.992;2023-09-18T08:36:42;21.50;89.90
3172;DHT22;1597;51.572;6.992;2023-09-18T08:39:07;21.60;85.90
3172;DHT22;1597;51.572;6.992;2023-09-18T08:41:42;21.50;87.20
3172;DHT22;1597;51.572;6.992;2023-09-18T08:44:09;21.50;88.10
3172;DHT22;1597;51.572;6.992;2023-09-18T08:46:36;21.60;86.60
3172;DHT22;1597;51.572;6.992;2023-09-18T08:49:03;21.60;86.10
3172;DHT22;1597;51.572;6.992;2023-09-18T08:51:30;21.60;86.60
3172;DHT22;1597;51.572;6.992;2023-09-18T08:53:57;21.60;83.50
3172;DHT22;1597;51.572;6.992;2023-09-18T08:56:23;21.60;84.00
3172;DHT22;1597;51.572;6.992;2023-09-18T08:58:49;21.60;83.00
3172;DHT22;1597;51.572;6.992;2023-09-18T09:01:15;21.60;80.20
3172;DHT22;1597;51.572;6.992;2023-09-18T09:03:42;21.60;81.40
3172;DHT22;1597;51.572;6.992;2023-09-18T09:06:11;21.60;79.80
3172;DHT22;1597;51.572;6.992;2023-09-18T09:08:38;21.60;78.30
3172;DHT22;1597;51.572;6.992;2023-09-18T09:11:04;21.60;81.20
3172;DHT22;1597;51.572;6.992;2023-09-18T09:13:30;21.60;75.90
3172;DHT22;1597;51.572;6.992;2023-09-18T09:15:58;21.70;77.40
3172;DHT22;1597;51.572;6.992;2023-09-18T09:18:28;21.60;77.30
3172;DHT22;1597;51.572;6.992;2023-09-18T09:20:57;21.60;79.50
3172;DHT22;1597;51.572;6.992;2023-09-18T09:23:26;21.70;73.20
3172;DHT22;1597;51.572;6.992;2023-09-18T09:25:53;21.70;71.90
3172;DHT22;1597;51.572;6.992;2023-09-18T09:28:31;21.70;75.20
3172;DHT22;1597;51.572;6.992;2023-09-18T09:31:01;21.50;70.40
3172;DHT22;1597;51.572;6.992;2023-09-18T09:33:31;21.90;62.20
3172;DHT22;1597;51.572;6.992;2023-09-18T09:35:58;21.90;63.90
3172;DHT22;1597;51.572;6.992;2023-09-18T09:38:31;21.90;66.00
3172;DHT22;1597;51.572;6.992;2023-09-18T09:41:00;21.90;63.30
3172;DHT22;1597;51.572;6.992;2023-09-18T09:43:31;21.90;58.70
3172;DHT22;1597;51.572;6.992;2023-09-18T09:46:01;21.90;52.80
3172;DHT22;1597;51.572;6.992;2023-09-18T09:48:27;21.90;51.10
3172;DHT22;1597;51.572;6.992;2023-09-18T09:51:00;21.90;48.00
3172;DHT22;1597;51.572;6.992;2023-09-18T09:53:45;21.90;51.20
3172;DHT22;1597;51.572;6.992;2023-09-18T09:56:13;21.90;46.10
3172;DHT22;1597;51.572;6.992;2023-09-18T09:58:40;21.90;41.00
3172;DHT22;1597;51.572;6.992;2023-09-18T10:01:11;21.80;44.70
3172;DHT22;1597;51.572;6.992;2023-09-18T10:03:44;21.90;43.40
3172;DHT22;1597;51.572;6.992;2023-09-18T10:06:12;21.90;42.30
3172;DHT22;1597;51.572;6.992;2023-09-18T10:08:40;22.00;40.40
3172;DHT22;1597;51.572;6.992;2023-09-18T10:11:07;22.10;36.20
3172;DHT22;1597;51.572;6.992;2023-09-18T10:13:47;22.10;36.90
3172;DHT22;1597;51.572;6.992;2023-09-18T10:16:17;22.20;31.20
3172;DHT22;1597;51.572;6.992;2023-09-18T10:18:56;22.20;32.20
3172;DHT22;1597;51.572;6.992;2023-09-18T10:21:41;22.30;29.90
3172;DHT22;1597;51.572;6.992;2023-09-18T10:24:28;22.30;28.10
3172;DHT22;1597;51.572;6.992;2023-09-18T10:27:02;22.30;28.60
3172;DHT22;1597;51.572;6.992;2023-09-18T10:29:30;22.40;31.70
3172;DHT22;1597;51.572;6.992;2023-09-18T10:31:58;22.40;21.80
3172;DHT22;1597;51.572;6.992;2023-09-18T10:34:25;22.40;20.40
3172;DHT22;1597;51.572;6.992;2023-09-18T10:36:52;22.40;26.10
3172;DHT22;1597;51.572;6.992;2023-09-18T10:39:20;22.50;26.30
3172;DHT22;1597;51.572;6.992;2023-09-18T10:41:52;22.50;24.70
3172;DHT22;1597;51.572;6.992;2023-09-18T10:44:19;22.60;26.70
3172;DHT22;1597;51.572;6.992;2023-09-18T10:46:46;22.40;25.30
3172;DHT22;1597;51.572;6.992;2023-09-18T10:49:12;22.70;23.90
3172;DHT22;1597;51.572;6.992;2023-09-18T10:51:39;22.70;23.30
3172;DHT22;1597;51.572;6.992;2023-09-18T10:54:12;22.80;24.90
3172;DHT22;1597;51.572;6.992;2023-09-18T10:56:44;22.90;24.20
3172;DHT22;1597;51.572;6.992;2023-09-18T10:59:11;23.10;21.20
3172;DHT22;1597;51.572;6.992;2023-09-18T11:01:36;23.20;12.70
3172;DHT22;1597;51.572;6.992;2023-09-18T11:04:07;23.20;7.20
3172;DHT22;1597;51.572;6.992;2023-09-18T11:09:20;23.30;7.60
3172;DHT22;1597;51.572;6.992;2023-09-18T11:14:59;23.30;4.00
3172;DHT22;1597;51.572;6.992;2023-09-18T11:17:30;23.30;1.00
3172;DHT22;1597;51.572;6.992;2023-09-18T11:25:36;23.20;6.10
3172;DHT22;1597;51.572;6.992;2023-09-18T11:28:04;23.30;7.80
3172;DHT22;1597;51.572;6.992;2023-09-18T11:30:37;23.40;3.60
3172;DHT22;1597;51.572;6.992;2023-09-18T11:33:05;23.50;1.00
3172;DHT22;1597;51.572;6.992;2023-09-18T11:35:35;23.60;1.00
3172;DHT22;1597;51.572;6.992;2023-09-18T11:38:06;23.70;1.00
3172;DHT22;1597;51.572;6.992;2023-09-18T11:40:35;23.80;1.00
3172;DHT22;1597;51.572;6.992;2023-09-18T11:43:20;23.80;1.00
3172;DHT22;1597;51.572;6.992;2023-09-18T11:45:57;23.80;1.00
3172;DHT22;1597;51.572;6.992;2023-09-18T11:48:25;23.90;1.00
3172;DHT22;1597;51.572;6.992;2023-09-18T11:50:58;23.80;1.00
3172;DHT22;1597;51.572;6.992;2023-09-18T11:53:27;23.70;1.00
3172;DHT22;1597;51.572;6.992;2023-09-18T11:55:56;23.70;1.00
3172;DHT22;1597;51.572;6.992;2023-09-18T11:58:22;23.80;1.00
3172;DHT22;1597;51.572;6.992;2023-09-18T12:00:50;23.90;1.00
3172;DHT22;1597;51.572;6.992;2023-09-18T12:03:21;23.90;1.00
3172;DHT22;1597;51.572;6.992;2023-09-18T12:05:56;23.80;1.00
3172;DHT22;1597;51.572;6.992;2023-09-18T12:08:23;23.90;1.00
3172;DHT22;1597;51.572;6.992;2023-09-18T12:10:53;24.00;1.00
3172;DHT22;1597;51.572;6.992;2023-09-18T12:13:19;24.10;1.00
3172;DHT22;1597;51.572;6.992;2023-09-18T12:15:46;24.20;1.00
3172;DHT22;1597;51.572;6.992;2023-09-18T12:18:15;24.40;1.00
3172;DHT22;1597;51.572;6.992;2023-09-18T12:20:48;24.40;1.00
3172;DHT22;1597;51.572;6.992;2023-09-18T12:23:15;24.40;1.00
3172;DHT22;1597;51.572;6.992;2023-09-18T12:25:44;24.40;1.00
3172;DHT22;1597;51.572;6.992;2023-09-18T12:28:13;24.30;1.00
3172;DHT22;1597;51.572;6.992;2023-09-18T12:30:43;24.20;1.00
3172;DHT22;1597;51.572;6.992;2023-09-18T12:33:09;24.30;1.00
3172;DHT22;1597;51.572;6.992;2023-09-18T12:35:36;24.30;1.00
3172;DHT22;1597;51.572;6.992;2023-09-18T12:38:14;24.30;1.00
3172;DHT22;1597;51.572;6.992;2023-09-18T12:40:41;24.30;1.00
3172;DHT22;1597;51.572;6.992;2023-09-18T12:43:09;24.20;1.00
3172;DHT22;1597;51.572;6.992;2023-09-18T12:45:36;24.10;1.00
3172;DHT22;1597;51.572;6.992;2023-09-18T12:48:02;24.10;1.00
3172;DHT22;1597;51.572;6.992;2023-09-18T12:50:29;24.00;1.00
3172;DHT22;1597;51.572;6.992;2023-09-18T12:53:12;24.00;1.00
3172;DHT22;1597;51.572;6.992;2023-09-18T12:55:40;24.00;1.00
3172;DHT22;1597;51.572;6.992;2023-09-18T12:58:10;24.10;1.00
3172;DHT22;1597;51.572;6.992;2023-09-18T13:00:37;24.10;1.00
3172;DHT22;1597;51.572;6.992;2023-09-18T13:03:05;24.20;1.00
3172;DHT22;1597;51.572;6.992;2023-09-18T13:05:31;24.30;1.00
3172;DHT22;1597;51.572;6.992;2023-09-18T13:08:04;24.40;1.00
3172;DHT22;1597;51.572;6.992;2023-09-18T13:10:44;24.40;1.00
3172;DHT22;1597;51.572;6.992;2023-09-18T13:13:23;24.50;1.00
3172;DHT22;1597;51.572;6.992;2023-09-18T13:15:50;24.50;1.00
3172;DHT22;1597;51.572;6.992;2023-09-18T13:18:16;24.50;1.00
3172;DHT22;1597;51.572;6.992;2023-09-18T13:20:44;24.50;1.00
3172;DHT22;1597;51.572;6.992;2023-09-18T13:23:10;24.50;1.00
3172;DHT22;1597;51.572;6.992;2023-09-18T13:25:40;24.40;1.00
3172;DHT22;1597;51.572;6.992;2023-09-18T13:28:10;24.40;1.00
3172;DHT22;1597;51.572;6.992;2023-09-18T13:30:37;24.40;1.00
3172;DHT22;1597;51.572;6.992;2023-09-18T13:33:11;24.40;1.00
3172;DHT22;1597;51.572;6.992;2023-09-18T13:35:40;24.30;1.00
3172;DHT22;1597;51.572;6.992;2023-09-18T13:38:07;24.20;1.00
3172;DHT22;1597;51.572;6.992;2023-09-18T13:40:44;24.20;1.00
3172;DHT22;1597;51.572;6.992;2023-09-18T13:43:11;24.20;1.00
3172;DHT22;1597;51.572;6.992;2023-09-18T13:45:41;24.30;1.00
3172;DHT22;1597;51.572;6.992;2023-09-18T13:48:07;24.40;1.00
3172;DHT22;1597;51.572;6.992;2023-09-18T13:50:34;24.50;1.00
3172;DHT22;1597;51.572;6.992;2023-09-18T13:53:02;24.60;1.00
3172;DHT22;1597;51.572;6.992;2023-09-18T13:55:30;24.60;1.00
3172;DHT22;1597;51.572;6.992;2023-09-18T13:57:56;24.60;1.00
3172;DHT22;1597;51.572;6.992;2023-09-18T14:00:22;24.60;1.00
3172;DHT22;1597;51.572;6.992;2023-09-18T14:02:48;24.60;1.00
3172;DHT22;1597;51.572;6.992;2023-09-18T14:05:14;24.60;1.00
3172;DHT22;1597;51.572;6.992;2023-09-18T14:07:40;24.60;1.00
3172;DHT22;1597;51.572;6.992;2023-09-18T14:10:10;24.60;1.00
3172;DHT22;1597;51.572;6.992;2023-09-18T14:12:37;24.70;1.00
3172;DHT22;1597;51.572;6.992;2023-09-18T14:15:08;24.60;1.00
3172;DHT22;1597;51.572;6.992;2023-09-18T14:17:35;24.70;1.00
3172;DHT22;1597;51.572;6.992;2023-09-18T14:20:02;24.80;1.00
3172;DHT22;1597;51.572;6.992;2023-09-18T14:22:32;24.70;1.00
3172;DHT22;1597;51.572;6.992;2023-09-18T14:25:00;24.70;1.00
3172;DHT22;1597;51.572;6.992;2023-09-18T14:27:30;24.60;1.00
3172;DHT22;1597;51.572;6.992;2023-09-18T14:30:00;24.60;1.00
3172;DHT22;1597;51.572;6.992;2023-09-18T14:32:29;24.50;1.00
3172;DHT22;1597;51.572;6.992;2023-09-18T14:34:55;24.50;1.00
3172;DHT22;1597;51.572;6.992;2023-09-18T14:37:21;24.50;1.00
3172;DHT22;1597;51.572;6.992;2023-09-18T14:39:47;24.50;1.00
3172;DHT22;1597;51.572;6.992;2023-09-18T14:42:12;24.50;1.00
3172;DHT22;1597;51.572;6.992;2023-09-18T14:44:38;24.60;1.00
3172;DHT22;1597;51.572;6.992;2023-09-18T14:47:12;24.60;1.00
3172;DHT22;1597;51.572;6.992;2023-09-18T14:49:38;24.60;1.00
3172;DHT22;1597;51.572;6.992;2023-09-18T14:52:05;24.60;1.00
3172;DHT22;1597;51.572;6.992;2023-09-18T14:54:31;24.60;1.00
3172;DHT22;1597;51.572;6.992;2023-09-18T14:56:56;24.60;1.00
3172;DHT22;1597;51.572;6.992;2023-09-18T14:59:23;24.60;1.00
3172;DHT22;1597;51.572;6.992;2023-09-18T15:01:49;24.60;1.00
3172;DHT22;1597;51.572;6.992;2023-09-18T15:04:15;24.60;1.00
3172;DHT22;1597;51.572;6.992;2023-09-18T15:06:40;24.50;1.00
3172;DHT22;1597;51.572;6.992;2023-09-18T15:09:06;24.50;1.00
3172;DHT22;1597;51.572;6.992;2023-09-18T15:11:33;24.50;1.00
3172;DHT22;1597;51.572;6.992;2023-09-18T15:14:02;24.40;1.00
3172;DHT22;1597;51.572;6.992;2023-09-18T15:16:28;24.40;1.00
3172;DHT22;1597;51.572;6.992;2023-09-18T15:18:56;24.40;1.00
3172;DHT22;1597;51.572;6.992;2023-09-18T15:21:26;24.40;1.00
3172;DHT22;1597;51.572;6.992;2023-09-18T15:23:51;24.30;1.00
3172;DHT22;1597;51.572;6.992;2023-09-18T15:26:17;24.30;1.00
3172;DHT22;1597;51.572;6.992;2023-09-18T15:28:43;24.30;1.00
3172;DHT22;1597;51.572;6.992;2023-09-18T15:31:09;24.20;1.00
3172;DHT22;1597;51.572;6.992;2023-09-18T15:33:34;24.20;1.00
3172;DHT22;1597;51.572;6.992;2023-09-18T15:36:00;24.10;1.00
3172;DHT22;1597;51.572;6.992;2023-09-18T15:38:27;24.10;1.00
3172;DHT22;1597;51.572;6.992;2023-09-18T15:40:53;24.00;1.00
3172;DHT22;1597;51.572;6.992;2023-09-18T15:43:18;24.10;1.00
3172;DHT22;1597;51.572;6.992;2023-09-18T15:45:44;24.10;1.00
3172;DHT22;1597;51.572;6.992;2023-09-18T15:48:10;24.00;1.00
3172;DHT22;1597;51.572;6.992;2023-09-18T15:50:36;24.00;1.00
3172;DHT22;1597;51.572;6.992;2023-09-18T15:53:02;23.90;1.00
3172;DHT22;1597;51.572;6.992;2023-09-18T15:55:28;23.90;1.00
3172;DHT22;1597;51.572;6.992;2023-09-18T15:57:54;23.90;1.00
3172;DHT22;1597;51.572;6.992;2023-09-18T16:00:20;23.90;1.00
3172;DHT22;1597;51.572;6.992;2023-09-18T16:02:46;23.90;1.00
3172;DHT22;1597;51.572;6.992;2023-09-18T16:05:12;23.80;1.00
3172;DHT22;1597;51.572;6.992;2023-09-18T16:07:40;23.90;1.00
3172;DHT22;1597;51.572;6.992;2023-09-18T16:10:07;23.80;1.00
3172;DHT22;1597;51.572;6.992;2023-09-18T16:12:34;23.80;1.00
3172;DHT22;1597;51.572;6.992;2023-09-18T16:15:01;23.80;1.00
3172;DHT22;1597;51.572;6.992;2023-09-18T16:17:31;23.80;1.00
3172;DHT22;1597;51.572;6.992;2023-09-18T16:19:59;23.80;1.00
3172;DHT22;1597;51.572;6.992;2023-09-18T16:22:26;23.80;1.00